createdAt,value
2022-11-27T00:01:49.163Z,101499.59
2022-11-27T00:04:19.118Z,101506.53
2022-11-27T00:06:48.369Z,101499.09
2022-11-27T00:09:18.766Z,101499.97
2022-11-27T00:11:48.016Z,101466.44
2022-11-27T00:14:24.908Z,101494.16
2022-11-27T00:16:54.255Z,101481.81
2022-11-27T00:19:23.485Z,101498.59
2022-11-27T00:21:53.368Z,101497.72
2022-11-27T00:24:22.882Z,101468.97
2022-11-27T00:26:52.345Z,101496.06
2022-11-27T00:29:21.502Z,101498.59
2022-11-27T00:31:58.196Z,101489.38
2022-11-27T00:34:27.401Z,101503.13
2022-11-27T00:36:56.950Z,101498.84
2022-11-27T00:39:27.184Z,101495.44
2022-11-27T00:41:56.488Z,101518.38
2022-11-27T00:44:25.559Z,101506.75
2022-11-27T00:47:01.851Z,101501.09
2022-11-27T00:49:31.765Z,101502.63
2022-11-27T00:52:00.890Z,101508.78
2022-11-27T00:54:36.579Z,101509.31
2022-11-27T00:57:06.538Z,101486.00
2022-11-27T00:59:35.711Z,101497.88
2022-11-27T01:02:07.168Z,101503.25
2022-11-27T01:04:36.419Z,101494.19
2022-11-27T01:07:05.625Z,101496.31
2022-11-27T01:09:39.929Z,101483.59
2022-11-27T01:12:09.899Z,101502.00
2022-11-27T01:14:39.325Z,101504.81
2022-11-27T01:17:10.752Z,101472.00
2022-11-27T01:19:40.166Z,101489.28
2022-11-27T01:22:09.292Z,101458.41
2022-11-27T01:24:43.652Z,101498.84
2022-11-27T01:27:12.848Z,101492.03
2022-11-27T01:29:42.070Z,101493.19
2022-11-27T01:32:13.240Z,101499.75
2022-11-27T01:34:42.733Z,101477.22
2022-11-27T01:37:11.918Z,101499.50
2022-11-27T01:39:44.368Z,101452.91
2022-11-27T01:42:23.622Z,101495.09
2022-11-27T01:44:56.429Z,101476.56
2022-11-27T01:47:37.365Z,101454.94
2022-11-27T01:50:20.986Z,101481.72
2022-11-27T01:52:59.452Z,101510.84
2022-11-27T01:55:35.053Z,101477.47
2022-11-27T01:58:10.419Z,101501.88
2022-11-27T02:00:40.560Z,101498.00
2022-11-27T02:03:11.864Z,101485.78
2022-11-27T02:05:41.291Z,101462.84
2022-11-27T02:08:14.660Z,101486.91
2022-11-27T02:10:51.229Z,101489.19
2022-11-27T02:13:28.601Z,101476.31
2022-11-27T02:16:07.777Z,101519.03
2022-11-27T02:18:46.401Z,101494.19
2022-11-27T02:21:33.440Z,101494.06
2022-11-27T02:24:29.350Z,101505.06
2022-11-27T02:27:19.588Z,101511.59
2022-11-27T02:29:59.039Z,101484.38
2022-11-27T02:32:34.205Z,101486.91
2022-11-27T02:35:10.109Z,101491.19
2022-11-27T02:37:48.058Z,101513.25
2022-11-27T02:40:23.616Z,101507.97
2022-11-27T02:45:40.896Z,101507.97
2022-11-27T02:48:12.091Z,101518.91
2022-11-27T02:50:45.198Z,101493.47
2022-11-27T02:53:19.975Z,101510.22
2022-11-27T02:55:52.637Z,101524.56
2022-11-27T02:58:31.809Z,101507.34
2022-11-27T03:01:04.166Z,101514.00
2022-11-27T03:03:37.534Z,101512.63
2022-11-27T03:06:16.239Z,101519.81
2022-11-27T03:08:59.546Z,101522.72
2022-11-27T03:11:35.409Z,101521.19
2022-11-27T03:14:08.763Z,101481.38
2022-11-27T03:16:50.488Z,101509.22
2022-11-27T03:19:24.726Z,101498.75
2022-11-27T03:21:55.683Z,101514.38
2022-11-27T03:24:25.443Z,101508.97
2022-11-27T03:27:01.074Z,101510.25
2022-11-27T03:29:37.348Z,101533.66
2022-11-27T03:32:14.023Z,101522.09
2022-11-27T03:34:44.162Z,101531.53
2022-11-27T03:37:13.334Z,101532.41
2022-11-27T03:39:49.767Z,101529.38
2022-11-27T03:42:25.425Z,101519.28
2022-11-27T03:45:10.070Z,101524.97
2022-11-27T03:47:54.412Z,101520.06
2022-11-27T03:50:48.473Z,101525.72
2022-11-27T03:53:24.225Z,101489.69
2022-11-27T03:56:10.041Z,101516.16
2022-11-27T03:58:46.583Z,101522.22
2022-11-27T04:01:20.202Z,101511.59
2022-11-27T04:03:51.559Z,101495.47
2022-11-27T04:06:25.891Z,101486.78
2022-11-27T04:08:55.106Z,101501.00
2022-11-27T04:11:24.286Z,101518.53
2022-11-27T04:13:59.344Z,101528.13
2022-11-27T04:16:28.548Z,101510.84
2022-11-27T04:18:59.978Z,101533.53
2022-11-27T04:21:29.620Z,101510.84
2022-11-27T04:23:58.902Z,101517.16
2022-11-27T04:26:28.143Z,101500.63
2022-11-27T04:28:57.451Z,101522.19
2022-11-27T04:31:26.672Z,101503.03
2022-11-27T04:36:38.867Z,101527.22
2022-11-27T04:39:08.829Z,101529.44
2022-11-27T04:41:37.998Z,101526.28
2022-11-27T04:44:07.401Z,101512.84
2022-11-27T04:46:36.799Z,101536.75
2022-11-27T04:49:06.398Z,101541.00
2022-11-27T04:51:37.785Z,101522.84
2022-11-27T04:54:07.062Z,101527.50
2022-11-27T04:56:36.139Z,101541.22
2022-11-27T04:59:06.150Z,101530.28
2022-11-27T05:01:35.383Z,101539.84
2022-11-27T05:04:04.967Z,101535.72
2022-11-27T05:06:35.655Z,101534.22
2022-11-27T05:09:12.041Z,101535.47
2022-11-27T05:11:41.312Z,101507.41
2022-11-27T05:14:21.479Z,101548.31
2022-11-27T05:16:52.704Z,101546.97
2022-11-27T05:19:23.834Z,101553.00
2022-11-27T05:21:54.706Z,101560.94
2022-11-27T05:24:27.797Z,101553.59
2022-11-27T05:26:58.064Z,101535.72
2022-11-27T05:32:02.623Z,101550.44
2022-11-27T05:34:31.748Z,101533.69
2022-11-27T05:39:52.972Z,101536.31
2022-11-27T05:42:22.368Z,101555.31
2022-11-27T05:44:56.720Z,101544.44
2022-11-27T05:47:27.625Z,101557.19
2022-11-27T05:49:56.919Z,101560.69
2022-11-27T05:52:26.226Z,101546.19
2022-11-27T05:54:57.498Z,101553.00
2022-11-27T05:57:27.785Z,101559.53
2022-11-27T05:59:57.469Z,101554.84
2022-11-27T06:02:34.797Z,101560.19
2022-11-27T06:05:04.186Z,101569.13
2022-11-27T06:07:33.874Z,101564.72
2022-11-27T06:10:05.612Z,101571.84
2022-11-27T06:12:34.944Z,101584.72
2022-11-27T06:15:04.061Z,101540.16
2022-11-27T06:17:33.416Z,101575.84
2022-11-27T06:20:02.631Z,101579.38
2022-11-27T06:22:33.552Z,101574.81
2022-11-27T06:25:05.241Z,101549.34
2022-11-27T06:27:35.484Z,101574.50
2022-11-27T06:30:07.097Z,101556.81
2022-11-27T06:32:47.195Z,101552.00
2022-11-27T06:35:19.484Z,101554.81
2022-11-27T06:37:48.768Z,101563.88
2022-11-27T06:40:20.165Z,101559.47
2022-11-27T06:42:49.429Z,101566.06
2022-11-27T06:47:53.645Z,101570.50
2022-11-27T06:50:22.767Z,101565.03
2022-11-27T06:52:51.959Z,101566.41
2022-11-27T06:55:23.193Z,101561.56
2022-11-27T06:57:53.020Z,101574.47
2022-11-27T07:00:22.951Z,101567.34
2022-11-27T07:02:56.122Z,101566.50
2022-11-27T07:05:26.354Z,101584.28
2022-11-27T07:07:55.514Z,101576.38
2022-11-27T07:10:31.786Z,101566.13
2022-11-27T07:13:01.105Z,101584.94
2022-11-27T07:15:30.364Z,101535.41
2022-11-27T07:18:00.028Z,101583.13
2022-11-27T07:20:29.236Z,101573.00
2022-11-27T07:22:58.521Z,101584.31
2022-11-27T07:25:29.743Z,101578.72
2022-11-27T07:27:59.020Z,101594.63
2022-11-27T07:30:28.242Z,101541.38
2022-11-27T07:32:57.717Z,101570.59
2022-11-27T07:35:27.710Z,101551.13
2022-11-27T07:37:56.907Z,101570.50
2022-11-27T07:40:26.196Z,101561.47
2022-11-27T07:42:57.470Z,101567.44
2022-11-27T07:45:26.794Z,101573.25
2022-11-27T07:47:56.178Z,101544.50
2022-11-27T07:50:25.630Z,101563.91
2022-11-27T07:52:54.929Z,101564.13
2022-11-27T07:55:24.269Z,101556.41
2022-11-27T07:57:53.576Z,101562.84
2022-11-27T08:00:25.399Z,101566.47
2022-11-27T08:03:00.723Z,101555.38
2022-11-27T08:05:35.630Z,101571.44
2022-11-27T08:08:06.337Z,101574.09
2022-11-27T08:10:38.096Z,101563.19
2022-11-27T08:13:08.526Z,101554.72
2022-11-27T08:15:39.690Z,101567.69
2022-11-27T08:18:09.029Z,101563.63
2022-11-27T08:20:43.589Z,101565.47
2022-11-27T08:23:12.822Z,101513.78
2022-11-27T08:25:42.411Z,101563.84
2022-11-27T08:28:11.756Z,101553.94
2022-11-27T08:30:42.947Z,101568.00
2022-11-27T08:33:19.248Z,101552.69
2022-11-27T08:35:50.638Z,101567.78
2022-11-27T08:38:25.775Z,101563.16
2022-11-27T08:40:59.126Z,101550.66
2022-11-27T08:43:29.035Z,101559.66
2022-11-27T08:46:00.657Z,101553.69
2022-11-27T08:48:30.162Z,101558.09
2022-11-27T08:50:59.323Z,101552.19
2022-11-27T08:53:31.570Z,101553.00
2022-11-27T08:56:08.348Z,101560.50
2022-11-27T08:58:42.850Z,101542.75
2022-11-27T09:01:17.048Z,101552.69
2022-11-27T09:03:51.813Z,101551.69
2022-11-27T09:06:26.122Z,101543.28
2022-11-27T09:09:03.263Z,101560.31
2022-11-27T09:11:33.295Z,101523.59
2022-11-27T09:14:02.874Z,101542.16
2022-11-27T09:16:39.494Z,101483.66
2022-11-27T09:19:08.784Z,101539.09
2022-11-27T09:21:38.396Z,101544.38
2022-11-27T09:24:08.654Z,101523.59
2022-11-27T09:26:38.039Z,101546.47
2022-11-27T09:29:07.364Z,101546.47
2022-11-27T09:31:38.614Z,101549.66
2022-11-27T09:34:07.984Z,101549.97
2022-11-27T09:36:37.596Z,101553.47
2022-11-27T09:39:06.964Z,101549.00
2022-11-27T09:41:43.461Z,101541.16
2022-11-27T09:44:42.377Z,101481.16
2022-11-27T09:47:20.176Z,101545.97
2022-11-27T09:50:00.411Z,101530.50
2022-11-27T09:52:37.737Z,101526.28
2022-11-27T09:55:17.156Z,101527.19
2022-11-27T09:57:55.617Z,101526.63
2022-11-27T10:00:25.335Z,101529.28
2022-11-27T10:02:56.715Z,101546.88
2022-11-27T10:05:43.817Z,101545.09
2022-11-27T10:08:37.765Z,101546.41
2022-11-27T10:11:20.571Z,101536.97
2022-11-27T10:14:05.198Z,101549.09
2022-11-27T10:16:44.516Z,101544.69
2022-11-27T10:19:36.307Z,101531.53
2022-11-27T10:25:01.705Z,101550.75
2022-11-27T10:27:44.145Z,101556.16
2022-11-27T10:30:18.370Z,101536.13
2022-11-27T10:32:55.423Z,101562.31
2022-11-27T10:35:34.866Z,101546.91
2022-11-27T10:38:11.053Z,101563.19
2022-11-27T10:40:44.776Z,101532.28
2022-11-27T10:43:19.023Z,101577.06
2022-11-27T10:45:51.904Z,101544.69
2022-11-27T10:48:21.816Z,101575.00
2022-11-27T10:50:53.086Z,101568.03
2022-11-27T10:53:30.873Z,101566.91
2022-11-27T10:56:23.475Z,101579.59
2022-11-27T10:58:57.365Z,101565.72
2022-11-27T11:01:30.166Z,101562.31
2022-11-27T11:04:24.655Z,101575.69
2022-11-27T11:07:00.189Z,101566.91
2022-11-27T11:09:29.985Z,101563.72
2022-11-27T11:12:09.424Z,101566.91
2022-11-27T11:14:39.298Z,101564.19
2022-11-27T11:17:18.183Z,101554.69
2022-11-27T11:19:48.705Z,101564.59
2022-11-27T11:22:20.415Z,101561.75
2022-11-27T11:24:55.738Z,101551.44
2022-11-27T11:27:29.807Z,101559.34
2022-11-27T11:30:11.936Z,101575.19
2022-11-27T11:32:42.392Z,101588.50
2022-11-27T11:35:26.118Z,101547.25
2022-11-27T11:37:58.433Z,101576.47
2022-11-27T11:40:36.718Z,101586.38
2022-11-27T11:43:09.647Z,101577.78
2022-11-27T11:45:48.384Z,101579.16
2022-11-27T11:48:24.378Z,101572.03
2022-11-27T11:50:57.564Z,101545.38
2022-11-27T11:53:35.758Z,101587.78
2022-11-27T11:56:18.985Z,101594.59
2022-11-27T11:58:56.069Z,101567.16
2022-11-27T12:01:40.601Z,101590.28
2022-11-27T12:04:33.349Z,101599.91
2022-11-27T12:07:14.659Z,101598.97
2022-11-27T12:10:02.097Z,101586.56
2022-11-27T12:12:48.915Z,101594.03
2022-11-27T12:15:26.889Z,101575.34
2022-11-27T12:18:02.466Z,101588.97
2022-11-27T12:20:47.856Z,101599.22
2022-11-27T12:23:42.109Z,101590.22
2022-11-27T12:26:24.474Z,101590.88
2022-11-27T12:29:15.009Z,101588.00
2022-11-27T12:32:09.757Z,101600.56
2022-11-27T12:34:50.663Z,101594.94
2022-11-27T12:37:37.922Z,101577.72
2022-11-27T12:40:27.065Z,101607.19
2022-11-27T12:43:10.282Z,101605.13
2022-11-27T12:45:45.000Z,101606.78
2022-11-27T12:55:24.938Z,101612.63
2022-11-27T12:57:59.848Z,101602.69
2022-11-27T13:00:32.843Z,101600.25
2022-11-27T13:03:18.208Z,101614.78
2022-11-27T13:05:51.676Z,101621.06
2022-11-27T13:08:26.125Z,101588.13
2022-11-27T13:11:08.622Z,101565.75
2022-11-27T13:13:44.306Z,101615.31
2022-11-27T13:16:34.276Z,101571.50
2022-11-27T13:19:18.060Z,101607.34
2022-11-27T13:21:49.634Z,101611.88
2022-11-27T13:24:19.160Z,101613.13
2022-11-27T13:26:58.093Z,101608.25
2022-11-27T13:29:30.947Z,101582.13
2022-11-27T13:32:04.263Z,101603.38
2022-11-27T13:34:44.059Z,101593.25
2022-11-27T13:37:29.208Z,101588.91
2022-11-27T13:40:03.593Z,101591.66
2022-11-27T13:42:37.464Z,101589.56
2022-11-27T13:45:11.419Z,101615.50
2022-11-27T13:47:44.753Z,101606.88
2022-11-27T13:50:16.448Z,101606.47
2022-11-27T13:52:56.933Z,101597.16
2022-11-27T13:55:28.815Z,101611.19
2022-11-27T13:58:01.131Z,101615.84
2022-11-27T14:00:36.407Z,101618.59
2022-11-27T14:03:24.303Z,101620.81
2022-11-27T14:05:53.841Z,101625.03
2022-11-27T14:08:25.870Z,101614.25
2022-11-27T14:11:01.746Z,101631.59
2022-11-27T14:13:41.309Z,101618.19
2022-11-27T14:16:29.820Z,101612.78
2022-11-27T14:19:01.072Z,101622.16
2022-11-27T14:21:42.324Z,101622.91
2022-11-27T14:24:30.135Z,101619.22
2022-11-27T14:27:04.560Z,101623.16
2022-11-27T14:29:35.844Z,101630.75
2022-11-27T14:32:07.880Z,101630.59
2022-11-27T14:34:48.342Z,101627.56
2022-11-27T14:37:26.628Z,101615.31
2022-11-27T14:39:56.755Z,101625.22
2022-11-27T14:42:29.346Z,101625.22
2022-11-27T14:45:13.278Z,101611.00
2022-11-27T14:47:49.099Z,101610.41
2022-11-27T14:50:19.504Z,101622.41
2022-11-27T14:52:53.710Z,101622.59
2022-11-27T14:55:24.211Z,101623.59
2022-11-27T14:57:54.069Z,101632.09
2022-11-27T15:00:27.396Z,101601.66
2022-11-27T15:02:57.085Z,101614.72
2022-11-27T15:05:28.746Z,101635.06
2022-11-27T15:08:05.523Z,101629.94
2022-11-27T15:10:38.841Z,101624.28
2022-11-27T15:13:10.177Z,101624.53
2022-11-27T15:15:46.027Z,101617.69
2022-11-27T15:18:24.204Z,101607.56
2022-11-27T15:21:00.346Z,101617.16
2022-11-27T15:23:33.992Z,101620.25
2022-11-27T15:26:15.847Z,101627.22
2022-11-27T15:28:53.675Z,101634.81
2022-11-27T15:31:32.641Z,101627.22
2022-11-27T15:34:04.784Z,101617.06
2022-11-27T15:36:45.469Z,101605.94
2022-11-27T15:39:22.504Z,101621.25
2022-11-27T15:41:53.524Z,101624.97
2022-11-27T15:44:23.248Z,101626.94
2022-11-27T15:47:01.406Z,101624.75
2022-11-27T15:49:31.222Z,101622.75
2022-11-27T15:52:00.576Z,101630.22
2022-11-27T15:54:30.188Z,101626.13
2022-11-27T15:56:59.586Z,101634.88
2022-11-27T15:59:33.949Z,101622.56
2022-11-27T16:02:17.563Z,101626.53
2022-11-27T16:04:47.625Z,101628.03
2022-11-27T16:07:17.100Z,101616.59
2022-11-27T16:09:51.515Z,101639.94
2022-11-27T16:12:20.867Z,101648.56
2022-11-27T16:14:50.071Z,101640.78
2022-11-27T16:17:21.304Z,101643.69
2022-11-27T16:19:50.648Z,101626.47
2022-11-27T16:22:22.937Z,101654.63
2022-11-27T16:24:52.423Z,101638.72
2022-11-27T16:27:21.685Z,101640.09
2022-11-27T16:29:52.340Z,101636.13
2022-11-27T16:32:23.764Z,101642.56
2022-11-27T16:34:59.747Z,101634.00
2022-11-27T16:37:29.620Z,101642.53
2022-11-27T16:39:58.883Z,101631.72
2022-11-27T16:42:28.343Z,101659.94
2022-11-27T16:44:57.512Z,101609.81
2022-11-27T16:47:33.466Z,101659.00
2022-11-27T16:50:04.211Z,101655.97
2022-11-27T16:53:02.484Z,101653.44
2022-11-27T16:55:32.287Z,101659.41
2022-11-27T16:58:06.091Z,101637.63
2022-11-27T17:00:38.647Z,101646.75
2022-11-27T17:03:10.582Z,101652.44
2022-11-27T17:05:47.537Z,101661.94
2022-11-27T17:08:24.891Z,101660.84
2022-11-27T17:10:56.811Z,101662.16
2022-11-27T17:13:32.034Z,101661.53
2022-11-27T17:16:03.406Z,101657.34
2022-11-27T17:18:35.534Z,101652.03
2022-11-27T17:21:08.317Z,101648.69
2022-11-27T17:23:38.056Z,101654.19
2022-11-27T17:26:12.085Z,101647.56
2022-11-27T17:28:55.709Z,101655.16
2022-11-27T17:31:32.294Z,101597.94
2022-11-27T17:34:05.379Z,101638.28
2022-11-27T17:36:43.307Z,101660.50
2022-11-27T17:39:16.768Z,101661.19
2022-11-27T17:41:46.687Z,101626.88
2022-11-27T17:44:21.525Z,101662.16
2022-11-27T17:47:06.411Z,101651.25
2022-11-27T17:49:40.553Z,101658.72
2022-11-27T17:52:17.115Z,101657.69
2022-11-27T17:54:48.409Z,101644.94
2022-11-27T17:57:18.506Z,101662.56
2022-11-27T17:59:52.368Z,101654.53
2022-11-27T18:02:29.315Z,101663.44
2022-11-27T18:07:43.703Z,101673.09
2022-11-27T18:10:15.738Z,101665.38
2022-11-27T18:12:50.118Z,101652.44
2022-11-27T18:15:32.568Z,101668.66
2022-11-27T18:18:02.882Z,101672.97
2022-11-27T18:20:34.706Z,101656.75
2022-11-27T18:23:13.767Z,101674.06
2022-11-27T18:28:24.905Z,101654.91
2022-11-27T18:31:00.524Z,101657.56
2022-11-27T18:33:39.112Z,101659.81
2022-11-27T18:36:17.333Z,101672.84
2022-11-27T18:38:49.650Z,101661.75
2022-11-27T18:41:21.631Z,101672.91
2022-11-27T18:43:53.117Z,101676.16
2022-11-27T18:46:31.706Z,101665.03
2022-11-27T18:49:02.591Z,101674.16
2022-11-27T18:51:35.896Z,101647.97
2022-11-27T18:54:13.330Z,101656.38
2022-11-27T18:56:43.094Z,101668.84
2022-11-27T18:59:20.967Z,101682.84
2022-11-27T19:01:50.667Z,101651.94
2022-11-27T19:04:25.239Z,101660.69
2022-11-27T19:07:00.576Z,101641.44
2022-11-27T19:09:31.717Z,101670.44
2022-11-27T19:12:05.519Z,101688.84
2022-11-27T19:14:36.022Z,101679.50
2022-11-27T19:17:05.924Z,101687.09
2022-11-27T19:22:29.700Z,101688.38
2022-11-27T19:25:00.375Z,101671.97
2022-11-27T19:27:37.107Z,101684.28
2022-11-27T19:30:09.353Z,101641.47
2022-11-27T19:32:47.765Z,101682.69
2022-11-27T19:35:23.953Z,101676.97
2022-11-27T19:38:05.727Z,101675.44
2022-11-27T19:40:38.327Z,101678.59
2022-11-27T19:43:10.827Z,101681.47
2022-11-27T19:45:40.630Z,101681.47
2022-11-27T19:48:10.227Z,101682.31
2022-11-27T19:50:41.024Z,101681.66
2022-11-27T19:53:15.358Z,101683.19
2022-11-27T19:55:45.163Z,101683.00
2022-11-27T19:58:15.024Z,101685.31
2022-11-27T20:00:44.522Z,101664.88
2022-11-27T20:03:14.332Z,101689.34
2022-11-27T20:05:43.889Z,101685.66
2022-11-27T20:10:53.805Z,101672.16
2022-11-27T20:13:23.538Z,101680.22
2022-11-27T20:15:58.059Z,101692.28
2022-11-27T20:18:27.872Z,101672.78
2022-11-27T20:21:11.496Z,101658.63
2022-11-27T20:23:45.295Z,101694.59
2022-11-27T20:26:17.142Z,101677.28
2022-11-27T20:28:47.796Z,101694.28
2022-11-27T20:31:27.956Z,101711.53
2022-11-27T20:34:00.261Z,101707.63
2022-11-27T20:36:39.824Z,101719.13
2022-11-27T20:39:19.239Z,101704.38
2022-11-27T20:42:03.143Z,101694.56
2022-11-27T20:44:32.599Z,101674.59
2022-11-27T20:47:01.799Z,101682.41
2022-11-27T20:52:19.395Z,101700.66
2022-11-27T20:54:50.861Z,101686.28
2022-11-27T20:57:20.485Z,101705.81
2022-11-27T20:59:49.956Z,101701.03
2022-11-27T21:02:19.453Z,101697.28
2022-11-27T21:04:48.815Z,101708.13
2022-11-27T21:07:19.038Z,101724.50
2022-11-27T21:09:50.888Z,101696.16
2022-11-27T21:12:20.191Z,101677.63
2022-11-27T21:14:49.439Z,101721.03
2022-11-27T21:17:19.382Z,101702.50
2022-11-27T21:19:48.638Z,101720.66
2022-11-27T21:22:21.809Z,101718.97
2022-11-27T21:24:54.058Z,101727.31
2022-11-27T21:27:25.355Z,101724.47
2022-11-27T21:30:00.630Z,101722.66
2022-11-27T21:32:31.083Z,101720.72
2022-11-27T21:35:00.350Z,101715.03
2022-11-27T21:37:39.966Z,101725.72
2022-11-27T21:40:17.901Z,101729.91
2022-11-27T21:42:47.421Z,101717.44
2022-11-27T21:45:16.838Z,101722.69
2022-11-27T21:47:47.044Z,101712.97
2022-11-27T21:50:21.572Z,101722.38
2022-11-27T21:53:02.186Z,101722.38
2022-11-27T21:55:33.708Z,101724.97
2022-11-27T21:58:03.115Z,101734.56
2022-11-27T22:00:32.412Z,101727.63
2022-11-27T22:03:01.726Z,101735.94
2022-11-27T22:05:31.065Z,101738.66
2022-11-27T22:08:00.498Z,101730.31
2022-11-27T22:10:29.916Z,101732.34
2022-11-27T22:13:01.337Z,101731.66
2022-11-27T22:15:31.911Z,101725.84
2022-11-27T22:18:01.263Z,101743.44
2022-11-27T22:20:30.641Z,101708.72
2022-11-27T22:23:00.312Z,101739.13
2022-11-27T22:25:30.322Z,101737.28
2022-11-27T22:30:43.409Z,101738.56
2022-11-27T22:33:17.900Z,101736.81
2022-11-27T22:35:47.143Z,101739.69
2022-11-27T22:38:16.386Z,101725.44
2022-11-27T22:40:47.052Z,101735.34
2022-11-27T22:43:18.398Z,101730.03
2022-11-27T22:45:48.777Z,101723.78
2022-11-27T22:48:18.534Z,101739.75
2022-11-27T22:50:48.033Z,101745.16
2022-11-27T22:53:17.206Z,101737.56
2022-11-27T22:55:46.377Z,101731.66
2022-11-27T22:58:17.538Z,101733.78
2022-11-27T23:00:47.076Z,101742.75
2022-11-27T23:03:16.512Z,101745.63
2022-11-27T23:08:22.400Z,101747.63
2022-11-27T23:10:52.212Z,101741.44
2022-11-27T23:13:23.478Z,101753.03
2022-11-27T23:15:53.956Z,101742.41
2022-11-27T23:18:28.218Z,101754.09
2022-11-27T23:20:57.632Z,101754.47
2022-11-27T23:23:26.858Z,101750.91
2022-11-27T23:25:57.146Z,101749.25
2022-11-27T23:28:28.375Z,101761.28
2022-11-27T23:31:15.614Z,101739.47
2022-11-27T23:33:47.062Z,101761.31
2022-11-27T23:36:16.188Z,101755.38
2022-11-27T23:38:45.438Z,101767.09
2022-11-27T23:41:21.672Z,101713.03
2022-11-27T23:43:53.847Z,101746.50
2022-11-27T23:46:31.122Z,101762.22
2022-11-27T23:49:02.043Z,101771.84
2022-11-27T23:51:33.159Z,101774.94
2022-11-27T23:54:03.256Z,101770.69
2022-11-27T23:56:44.565Z,101758.25
2022-11-27T23:59:15.843Z,101777.06
